createdAt,value
2022-10-17T00:01:34.775Z,7.32
2022-10-17T00:06:37.266Z,6.55
2022-10-17T00:11:39.530Z,7.00
2022-10-17T00:16:41.116Z,6.57
2022-10-17T00:21:42.670Z,6.50
2022-10-17T00:26:44.240Z,6.35
2022-10-17T00:31:45.832Z,5.60
2022-10-17T00:36:47.565Z,5.80
2022-10-17T00:41:49.264Z,5.60
2022-10-17T00:46:50.817Z,5.45
2022-10-17T00:51:57.447Z,4.72
2022-10-17T00:56:59.580Z,4.47
2022-10-17T01:02:11.645Z,5.72
2022-10-17T01:07:13.311Z,6.05
2022-10-17T01:12:18.869Z,5.75
2022-10-17T01:17:50.760Z,6.30
2022-10-17T01:23:07.440Z,5.18
2022-10-17T01:28:30.296Z,5.93
2022-10-17T01:33:53.261Z,6.65
2022-10-17T01:39:02.511Z,5.18
2022-10-17T01:44:10.441Z,4.93
2022-10-17T01:49:17.366Z,4.90
2022-10-17T01:54:25.748Z,4.95
2022-10-17T01:59:37.278Z,4.85
2022-10-17T02:04:41.295Z,5.45
2022-10-17T02:09:43.047Z,5.57
2022-10-17T02:15:02.875Z,7.05
2022-10-17T02:20:26.776Z,4.47
2022-10-17T02:25:45.492Z,5.53
2022-10-17T02:31:02.096Z,5.47
2022-10-17T02:36:08.950Z,5.80
2022-10-17T02:41:15.620Z,4.70
2022-10-17T02:46:23.172Z,4.55
2022-10-17T02:51:42.297Z,5.65
2022-10-17T02:56:52.907Z,4.63
2022-10-17T03:01:54.755Z,5.25
2022-10-17T03:06:56.441Z,5.18
2022-10-17T03:11:58.227Z,5.75
2022-10-17T03:17:00.460Z,5.47
2022-10-17T03:22:02.322Z,5.13
2022-10-17T03:27:05.511Z,5.50
2022-10-17T03:32:07.163Z,5.70
2022-10-17T03:37:09.513Z,5.53
2022-10-17T03:42:13.544Z,5.40
2022-10-17T03:47:15.251Z,4.88
2022-10-17T03:52:16.943Z,5.32
2022-10-17T03:57:19.649Z,5.45
2022-10-17T04:02:21.830Z,5.30
2022-10-17T04:07:24.575Z,4.90
2022-10-17T04:12:26.424Z,5.10
2022-10-17T04:17:35.754Z,6.40
2022-10-17T04:22:40.115Z,4.90
2022-10-17T04:27:41.897Z,5.65
2022-10-17T04:32:43.662Z,5.40
2022-10-17T04:37:55.431Z,5.90
2022-10-17T04:42:57.228Z,6.68
2022-10-17T04:48:06.859Z,6.35
2022-10-17T04:53:09.044Z,5.90
2022-10-17T04:58:10.873Z,5.97
2022-10-17T05:03:13.156Z,6.45
2022-10-17T05:08:15.168Z,6.55
2022-10-17T05:13:16.804Z,5.70
2022-10-17T05:18:18.671Z,9.95
2022-10-17T05:23:20.470Z,9.43
2022-10-17T05:28:22.784Z,8.57
2022-10-17T05:33:26.388Z,10.85
2022-10-17T05:38:28.639Z,8.57
2022-10-17T05:43:31.881Z,7.30
2022-10-17T05:48:34.370Z,8.82
2022-10-17T05:53:38.993Z,8.27
2022-10-17T05:58:50.257Z,7.57
2022-10-17T06:04:07.839Z,12.30
2022-10-17T06:09:10.020Z,9.35
2022-10-17T06:14:14.636Z,8.68
2022-10-17T06:19:17.402Z,8.10
2022-10-17T06:24:20.871Z,8.48
2022-10-17T06:29:22.835Z,8.50
2022-10-17T06:34:27.323Z,8.85
2022-10-17T06:39:33.854Z,8.25
2022-10-17T06:44:42.792Z,9.50
2022-10-17T06:50:07.221Z,9.32
2022-10-17T06:55:21.467Z,9.50
2022-10-17T07:00:42.801Z,9.38
2022-10-17T07:05:52.192Z,9.52
2022-10-17T07:10:56.690Z,9.55
2022-10-17T07:16:01.711Z,8.77
2022-10-17T07:21:06.126Z,7.10
2022-10-17T07:26:11.469Z,7.47
2022-10-17T07:31:17.703Z,7.35
2022-10-17T07:36:20.381Z,6.78
2022-10-17T07:41:26.015Z,6.95
2022-10-17T07:46:28.242Z,7.30
2022-10-17T07:51:30.374Z,6.97
2022-10-17T07:56:33.478Z,7.32
2022-10-17T08:01:35.108Z,6.78
2022-10-17T08:06:36.967Z,5.88
2022-10-17T08:11:38.916Z,5.75
2022-10-17T08:16:41.128Z,5.97
2022-10-17T08:21:44.919Z,5.63
2022-10-17T08:26:49.597Z,5.82
2022-10-17T08:32:00.863Z,5.10
2022-10-17T08:37:03.836Z,4.55
2022-10-17T08:42:05.422Z,4.80
2022-10-17T08:47:14.777Z,5.30
2022-10-17T08:52:29.855Z,4.03
2022-10-17T08:57:31.820Z,3.40
2022-10-17T09:03:11.903Z,3.58
2022-10-17T09:13:57.287Z,3.08
2022-10-17T09:19:21.494Z,2.63
2022-10-17T09:24:39.127Z,2.78
2022-10-17T09:29:43.842Z,3.35
2022-10-17T09:34:45.661Z,2.65
2022-10-17T09:39:47.943Z,2.70
2022-10-17T09:44:56.876Z,2.50
2022-10-17T09:49:58.496Z,3.17
2022-10-17T09:55:02.676Z,2.75
2022-10-17T10:00:06.474Z,2.28
2022-10-17T10:05:19.015Z,2.92
2022-10-17T10:10:27.918Z,2.80
2022-10-17T10:15:37.034Z,2.50
2022-10-17T10:20:38.713Z,2.38
2022-10-17T10:26:02.796Z,2.67
2022-10-17T10:31:07.672Z,2.40
2022-10-17T10:36:09.907Z,2.40
2022-10-17T10:41:11.856Z,2.40
2022-10-17T10:46:23.606Z,2.35
2022-10-17T10:51:47.939Z,2.22
2022-10-17T10:56:53.622Z,2.75
2022-10-17T11:02:10.732Z,2.55
2022-10-17T11:07:24.659Z,2.20
2022-10-17T11:12:39.210Z,2.38
2022-10-17T11:17:52.764Z,2.75
2022-10-17T11:23:01.600Z,2.53
2022-10-17T11:28:10.264Z,2.67
2022-10-17T11:33:20.383Z,1.88
2022-10-17T11:38:24.972Z,2.38
2022-10-17T11:43:35.272Z,2.33
2022-10-17T11:48:46.029Z,2.22
2022-10-17T11:53:47.575Z,2.60
2022-10-17T11:59:24.428Z,2.28
2022-10-17T12:04:56.235Z,1.80
2022-10-17T12:10:39.192Z,2.05
2022-10-17T12:15:44.677Z,2.00
2022-10-17T12:20:58.684Z,1.98
2022-10-17T12:26:04.675Z,1.88
2022-10-17T12:31:23.023Z,1.95
2022-10-17T12:36:27.268Z,1.88
2022-10-17T12:41:37.961Z,1.60
2022-10-17T12:46:44.360Z,2.53
2022-10-17T12:52:22.367Z,1.88
2022-10-17T12:57:47.327Z,1.90
2022-10-17T13:02:52.011Z,2.63
2022-10-17T13:07:55.242Z,1.60
2022-10-17T13:13:08.570Z,1.60
2022-10-17T13:18:18.543Z,3.20
2022-10-17T13:23:31.564Z,1.92
2022-10-17T13:28:37.134Z,1.90
2022-10-17T13:33:42.258Z,2.25
2022-10-17T13:38:43.980Z,1.85
2022-10-17T13:43:46.060Z,2.03
2022-10-17T13:48:48.705Z,1.85
2022-10-17T13:53:50.373Z,1.67
2022-10-17T13:58:53.209Z,1.80
2022-10-17T14:04:07.875Z,1.80
2022-10-17T14:09:40.116Z,1.60
2022-10-17T14:15:09.176Z,2.10
2022-10-17T14:25:43.376Z,1.92
2022-10-17T14:31:02.457Z,1.85
2022-10-17T14:36:05.465Z,1.83
2022-10-17T14:46:37.739Z,1.77
2022-10-17T14:51:50.645Z,1.80
2022-10-17T14:57:14.758Z,1.95
2022-10-17T15:02:17.073Z,1.80
2022-10-17T15:07:19.401Z,1.90
2022-10-17T15:12:26.726Z,1.73
2022-10-17T15:17:30.971Z,1.80
2022-10-17T15:22:36.515Z,1.90
2022-10-17T15:27:38.107Z,1.98
2022-10-17T15:32:39.710Z,1.52
2022-10-17T15:37:42.771Z,1.70
2022-10-17T15:42:44.401Z,1.65
2022-10-17T15:47:54.516Z,2.53
2022-10-17T15:52:56.084Z,1.80
2022-10-17T15:57:57.675Z,2.10
2022-10-17T16:02:59.273Z,1.95
2022-10-17T16:08:00.829Z,2.42
2022-10-17T16:13:02.448Z,2.17
2022-10-17T16:18:06.678Z,2.33
2022-10-17T16:23:12.503Z,2.58
2022-10-17T16:28:14.038Z,3.50
2022-10-17T16:33:15.601Z,2.47
2022-10-17T16:38:17.129Z,3.28
2022-10-17T16:43:18.680Z,2.97
2022-10-17T16:48:20.985Z,2.42
2022-10-17T16:53:22.868Z,3.42
2022-10-17T16:58:27.356Z,3.08
2022-10-17T17:03:28.953Z,4.05
2022-10-17T17:08:30.756Z,3.60
2022-10-17T17:13:32.280Z,4.53
2022-10-17T17:18:34.422Z,4.40
2022-10-17T17:23:38.827Z,4.60
2022-10-17T17:28:41.553Z,4.72
2022-10-17T17:33:44.033Z,4.95
2022-10-17T17:38:47.232Z,5.25
2022-10-17T17:43:49.420Z,5.32
2022-10-17T17:48:52.430Z,4.63
2022-10-17T17:53:55.089Z,5.07
2022-10-17T17:58:59.111Z,5.15
2022-10-17T18:04:00.738Z,5.43
2022-10-17T18:09:02.478Z,5.70
2022-10-17T18:14:07.638Z,5.43
2022-10-17T18:19:11.579Z,5.53
2022-10-17T18:24:13.133Z,4.70
2022-10-17T18:29:14.790Z,5.22
2022-10-17T18:34:16.331Z,5.55
2022-10-17T18:39:18.015Z,5.85
2022-10-17T18:44:19.809Z,6.20
2022-10-17T18:49:23.253Z,5.85
2022-10-17T18:54:24.921Z,6.57
2022-10-17T18:59:26.507Z,6.78
2022-10-17T19:04:28.082Z,6.97
2022-10-17T19:09:29.675Z,7.72
2022-10-17T19:14:31.339Z,6.95
2022-10-17T19:19:32.990Z,6.95
2022-10-17T19:24:34.527Z,7.20
2022-10-17T19:29:36.045Z,6.60
2022-10-17T19:34:37.885Z,5.72
2022-10-17T19:39:39.406Z,7.20
2022-10-17T19:44:40.992Z,5.43
2022-10-17T19:49:46.466Z,5.95
2022-10-17T19:54:50.672Z,5.80
2022-10-17T19:59:55.133Z,6.25
2022-10-17T20:05:13.946Z,6.43
2022-10-17T20:10:19.196Z,6.30
2022-10-17T20:15:20.784Z,6.43
2022-10-17T20:20:22.710Z,5.57
2022-10-17T20:25:26.710Z,7.30
2022-10-17T20:30:28.354Z,6.70
2022-10-17T20:35:29.884Z,6.70
2022-10-17T20:40:35.605Z,6.57
2022-10-17T20:45:50.629Z,6.60
2022-10-17T20:50:53.952Z,6.15
2022-10-17T20:56:23.017Z,6.45
2022-10-17T21:01:26.017Z,5.10
2022-10-17T21:06:27.687Z,4.75
2022-10-17T21:11:30.318Z,4.85
2022-10-17T21:16:34.449Z,4.78
2022-10-17T21:21:39.403Z,6.30
2022-10-17T21:26:42.441Z,6.35
2022-10-17T21:31:44.928Z,6.50
2022-10-17T21:36:47.161Z,5.90
2022-10-17T21:41:48.847Z,6.47
2022-10-17T21:46:51.326Z,6.85
2022-10-17T21:51:53.629Z,6.30
2022-10-17T21:56:55.371Z,6.35
2022-10-17T22:01:57.014Z,6.63
2022-10-17T22:06:58.628Z,6.90
2022-10-17T22:12:00.204Z,7.50
2022-10-17T22:17:01.784Z,7.43
2022-10-17T22:22:03.352Z,8.00
2022-10-17T22:27:04.906Z,7.68
2022-10-17T22:32:06.614Z,6.72
2022-10-17T22:37:11.039Z,7.13
2022-10-17T22:42:12.650Z,6.75
2022-10-17T22:47:14.273Z,7.68
2022-10-17T22:52:15.825Z,6.45
2022-10-17T22:57:17.378Z,7.22
2022-10-17T23:02:18.906Z,6.93
2022-10-17T23:07:20.488Z,8.60
2022-10-17T23:12:22.283Z,7.07
2022-10-17T23:17:23.803Z,7.32
2022-10-17T23:22:25.336Z,7.63
2022-10-17T23:27:26.900Z,7.20
2022-10-17T23:32:28.740Z,6.72
2022-10-17T23:37:30.814Z,7.15
2022-10-17T23:42:32.505Z,7.20
2022-10-17T23:47:34.253Z,6.88
2022-10-17T23:52:35.985Z,6.88
2022-10-17T23:57:37.624Z,7.28
